Time;durP1;ratioP1;P1;durP2;ratioP2;P2;SDS_P1;SDS_P2;PMS_P1;PMS_P2;Temp;Humidity;BMP_temperature;BMP_pressure;BME280_temperature;BME280_humidity;BME280_pressure;Samples;Min_cycle;Max_cycle;Signal;HPM_P1;HPM_P2
2022/03/03 00:00:29;;;;;;;19.58;17.58;;;4.70;38.30;;;;;;20482;6806;306386;-88
2022/03/03 00:03:05;;;;;;;27.17;21.30;;;4.90;38.20;;;;;;20653;6739;278199;-89
2022/03/03 00:05:40;;;;;;;26.10;21.58;;;5.00;37.90;;;;;;20629;6751;308155;-87
2022/03/03 00:08:16;;;;;;;24.97;21.30;;;5.10;38.20;;;;;;20518;6737;306549;-89
2022/03/03 00:11:02;;;;;;;21.07;18.83;;;5.20;38.00;;;;;;20673;6778;307106;-89
2022/03/03 00:13:38;;;;;;;;;;;;;;;;;;;;;
2022/03/03 00:16:04;;;;;;;20.30;18.08;;;4.90;37.50;;;;;;20671;6737;340959;-89
2022/03/03 00:18:39;;;;;;;19.83;17.73;;;4.80;38.30;;;;;;20661;6737;336632;-88
2022/03/03 00:21:24;;;;;;;23.85;21.50;;;4.90;38.60;;;;;;20573;6739;310435;-87
2022/03/03 00:23:50;;;;;;;23.80;21.33;;;5.00;38.10;;;;;;20630;6752;341035;-88
2022/03/03 00:26:35;;;;;;;22.60;19.37;;;5.10;38.00;;;;;;20652;6739;326197;-88
2022/03/03 00:29:01;;;;;;;18.03;16.13;;;5.10;37.80;;;;;;20895;6737;117488;-87
2022/03/03 00:31:37;;;;;;;18.87;16.10;;;4.80;37.80;;;;;;20892;6737;116349;-89
2022/03/03 00:34:13;;;;;;;17.73;15.93;;;4.30;38.30;;;;;;20876;6793;117763;-89
2022/03/03 00:36:48;;;;;;;19.90;16.13;;;4.00;38.90;;;;;;20718;6793;118480;-89
2022/03/03 00:39:24;;;;;;;18.37;15.00;;;3.70;39.30;;;;;;20877;6737;117405;-89
2022/03/03 00:41:59;;;;;;;20.23;18.23;;;3.50;39.60;;;;;;20657;6737;295347;-88
2022/03/03 00:44:35;;;;;;;20.33;18.17;;;3.70;40.20;;;;;;20667;6737;307076;-88
2022/03/03 00:47:10;;;;;;;20.88;18.75;;;4.10;39.60;;;;;;20610;6736;338711;-87
2022/03/03 00:49:47;;;;;;;17.70;15.77;;;4.30;39.50;;;;;;20953;6721;117653;-89
2022/03/03 00:52:32;;;;;;;20.60;18.37;;;4.10;39.20;;;;;;20578;6737;305635;-87
2022/03/03 00:55:00;;;;;;;19.20;17.33;;;4.30;39.40;;;;;;20622;6751;277309;-88
2022/03/03 00:57:36;;;;;;;17.63;15.30;;;4.30;39.40;;;;;;20730;6766;117772;-88
2022/03/03 01:00:13;;;;;;;18.67;16.97;;;4.20;39.20;;;;;;20634;6751;278101;-87
2022/03/03 01:02:49;;;;;;;17.33;15.43;;;4.10;40.30;;;;;;20866;6739;120889;-87
2022/03/03 01:05:25;;;;;;;17.40;15.00;;;4.00;39.50;;;;;;20875;6736;117301;-88
2022/03/03 01:08:00;;;;;;;17.47;15.67;;;3.80;39.80;;;;;;20757;6724;118083;-88
2022/03/03 01:10:39;;;;;;;19.80;17.80;;;3.60;40.10;;;;;;20700;6722;335214;-88
2022/03/03 01:13:15;;;;;;;19.87;17.97;;;3.70;40.60;;;;;;20679;6736;306432;-87
2022/03/03 01:15:50;;;;;;;20.00;18.00;;;4.10;40.40;;;;;;20593;6749;288429;-88
2022/03/03 01:18:26;;;;;;;18.00;16.30;;;4.40;39.40;;;;;;20640;6778;117021;-87
2022/03/03 01:21:01;;;;;;;17.97;16.07;;;4.30;39.20;;;;;;20857;6748;121650;-88
2022/03/03 01:23:37;;;;;;;20.70;18.10;;;3.90;39.40;;;;;;20639;6748;336124;-88
2022/03/03 01:26:13;;;;;;;20.17;18.27;;;4.30;39.60;;;;;;20697;6737;278077;-89
2022/03/03 01:28:49;;;;;;;19.83;17.83;;;4.30;39.60;;;;;;20661;6737;335671;-87
2022/03/03 01:31:24;;;;;;;17.83;15.90;;;4.50;39.20;;;;;;20945;6737;117350;-86
2022/03/03 01:34:13;;;;;;;;;;;;;;;;;;;;;
2022/03/03 01:36:39;;;;;;;19.12;17.33;;;4.00;39.90;;;;;;20659;6737;337500;-85
2022/03/03 01:39:15;;;;;;;17.77;15.90;;;4.00;39.90;;;;;;20946;6737;117760;-88
2022/03/03 01:41:59;;;;;;;20.77;18.50;;;3.90;39.60;;;;;;20525;6752;311581;-89
2022/03/03 01:44:26;;;;;;;17.73;15.87;;;4.00;39.50;;;;;;20844;6766;117834;-88
2022/03/03 01:47:02;;;;;;;20.50;17.97;;;4.00;40.00;;;;;;20489;6781;295889;-89
2022/03/03 01:49:38;;;;;;;20.33;18.08;;;3.90;39.90;;;;;;20600;6826;307015;-89
2022/03/03 01:52:13;;;;;;;17.70;15.83;;;4.20;39.30;;;;;;20849;6769;123125;-85
2022/03/03 01:54:49;;;;;;;19.93;17.83;;;4.00;39.00;;;;;;20686;6791;306192;-86
2022/03/03 01:57:24;;;;;;;18.10;16.20;;;4.00;39.40;;;;;;20866;6738;117695;-86
2022/03/03 02:00:00;;;;;;;17.97;14.47;;;3.90;39.20;;;;;;21006;6724;116690;-84
2022/03/03 02:02:37;;;;;;;18.00;15.23;;;3.50;39.50;;;;;;20941;6739;120186;-86
2022/03/03 02:05:13;;;;;;;17.67;14.50;;;3.30;39.90;;;;;;20926;6751;122641;-87
2022/03/03 02:07:49;;;;;;;15.70;14.03;;;2.90;40.40;;;;;;20821;6739;116700;-90
2022/03/03 02:10:25;;;;;;;16.67;14.60;;;2.90;40.40;;;;;;20893;6736;117777;-87
2022/03/03 02:13:01;;;;;;;17.97;14.33;;;2.60;40.70;;;;;;20887;6736;117663;-87
2022/03/03 02:15:38;;;;;;;16.53;13.70;;;2.50;40.60;;;;;;20894;6736;116866;-87
2022/03/03 02:18:17;;;;;;;16.83;13.33;;;2.40;40.90;;;;;;20731;6739;118134;-87
2022/03/03 02:20:52;;;;;;;17.60;14.77;;;2.30;41.00;;;;;;20909;6728;121094;-88
2022/03/03 02:23:28;;;;;;;18.60;16.70;;;2.10;41.20;;;;;;20672;6795;310245;-84
2022/03/03 02:26:03;;;;;;;18.87;17.00;;;2.30;42.10;;;;;;19263;7101;298868;-88
2022/03/03 02:28:39;;;;;;;18.80;17.00;;;2.80;42.30;;;;;;20510;6781;281634;-89
2022/03/03 02:31:14;;;;;;;16.77;15.07;;;3.10;41.60;;;;;;20842;6766;122489;-89
2022/03/03 02:33:50;;;;;;;19.95;16.98;;;3.10;41.10;;;;;;20559;6822;308045;-88
2022/03/03 02:36:27;;;;;;;19.27;17.17;;;3.10;41.20;;;;;;20610;6751;325202;-88
2022/03/03 02:39:01;;;;;;;18.43;16.50;;;3.40;41.00;;;;;;20779;6766;124334;-88
2022/03/03 02:41:38;;;;;;;20.50;18.30;;;3.30;41.40;;;;;;20618;6751;312291;-87
2022/03/03 02:44:16;;;;;;;19.37;17.48;;;3.50;40.50;;;;;;20615;6751;307187;-88
2022/03/03 02:46:51;;;;;;;19.08;17.17;;;3.40;40.30;;;;;;20532;6762;318972;-90
2022/03/03 02:49:29;;;;;;;17.30;15.60;;;3.70;40.10;;;;;;20882;6737;122986;-88
2022/03/03 02:52:04;;;;;;;18.65;16.77;;;3.50;40.10;;;;;;20709;6724;305716;-88
2022/03/03 02:54:41;;;;;;;18.57;16.17;;;3.50;40.30;;;;;;20869;6739;126069;-89
2022/03/03 03:00:13;;;;;;;19.47;16.73;;;3.30;40.10;;;;;;20920;6722;117147;-88
2022/03/03 03:02:48;;;;;;;19.90;17.80;;;3.10;40.00;;;;;;20694;6722;292719;-88
2022/03/03 03:05:24;;;;;;;20.67;18.70;;;3.30;40.00;;;;;;20674;6722;289608;-87
2022/03/03 03:08:10;;;;;;;;;;;;;;;;;;;;;
2022/03/03 03:10:36;;;;;;;16.83;15.07;;;3.50;39.80;;;;;;20850;6739;148065;-91
2022/03/03 03:13:18;;;;;;;19.67;17.87;;;3.30;39.70;;;;;;20583;6765;307389;-88
2022/03/03 03:15:55;;;;;;;19.30;17.40;;;3.20;40.50;;;;;;20623;6751;306860;-89
2022/03/03 03:18:40;;;;;;;;;;;;;;;;;;;;;
2022/03/03 03:21:06;;;;;;;19.93;17.87;;;3.30;40.50;;;;;;20746;6737;318614;-86
2022/03/03 03:23:42;;;;;;;21.53;17.33;;;3.40;40.90;;;;;;20973;6737;116406;-87
2022/03/03 03:26:18;;;;;;;18.40;15.07;;;3.30;40.70;;;;;;20939;6736;118585;-87
2022/03/03 03:28:54;;;;;;;20.43;18.43;;;3.00;40.80;;;;;;20714;6742;305653;-86
2022/03/03 03:31:30;;;;;;;17.87;16.07;;;3.00;40.90;;;;;;20875;6805;116964;-87
2022/03/03 03:34:06;;;;;;;20.13;18.03;;;2.90;40.70;;;;;;20673;6784;306996;-87
2022/03/03 03:36:44;;;;;;;19.73;17.53;;;3.20;40.70;;;;;;20652;6717;304968;-88
2022/03/03 03:39:21;;;;;;;21.60;19.40;;;3.20;40.70;;;;;;20686;6736;276817;-88
2022/03/03 03:41:56;;;;;;;17.63;15.53;;;3.40;40.40;;;;;;20924;6721;117253;-87
2022/03/03 03:44:32;;;;;;;18.90;17.00;;;3.10;40.10;;;;;;20647;6734;311815;-88
2022/03/03 03:47:18;;;;;;;18.07;15.57;;;2.90;41.00;;;;;;20857;6722;118203;-89
2022/03/03 03:49:44;;;;;;;16.20;14.30;;;2.90;41.00;;;;;;20900;6734;117297;-89
2022/03/03 03:52:19;;;;;;;15.77;14.17;;;2.60;41.20;;;;;;20904;6732;117636;-88
2022/03/03 03:54:55;;;;;;;19.97;14.47;;;2.30;41.40;;;;;;20926;6774;117209;-88
2022/03/03 03:57:41;;;;;;;;;;;;;;;;;;;;;
2022/03/03 04:00:09;;;;;;;20.80;18.60;;;2.30;42.30;;;;;;20670;6734;306689;-89
2022/03/03 04:02:56;;;;;;;17.23;15.53;;;2.60;41.70;;;;;;20934;6719;117687;-89
2022/03/03 04:05:25;;;;;;;21.40;19.30;;;2.60;41.60;;;;;;20700;6781;306637;-89
2022/03/03 04:07:58;;;;;;;18.07;15.43;;;2.70;42.00;;;;;;20793;6719;117974;-88
2022/03/03 04:10:34;;;;;;;20.83;18.67;;;2.60;41.70;;;;;;20691;6719;340071;-88
2022/03/03 04:13:09;;;;;;;18.80;16.83;;;2.70;41.90;;;;;;20899;6734;117604;-89
2022/03/03 04:15:46;;;;;;;21.27;19.20;;;2.60;41.60;;;;;;20723;6719;337556;-87
2022/03/03 04:18:22;;;;;;;20.13;18.07;;;2.70;42.00;;;;;;20513;6734;308867;-87
2022/03/03 04:21:07;;;;;;;20.85;18.75;;;3.00;41.70;;;;;;20629;6748;281638;-88
2022/03/03 04:23:43;;;;;;;;;;;;;;;;;;;;;
2022/03/03 04:26:09;;;;;;;20.97;18.80;;;3.00;41.00;;;;;;20660;6740;277648;-88
2022/03/03 04:28:45;;;;;;;22.00;19.60;;;3.00;41.50;;;;;;20642;6740;302503;-89
2022/03/03 04:31:20;;;;;;;19.93;18.03;;;3.20;41.10;;;;;;20671;6741;277859;-88
2022/03/03 04:33:56;;;;;;;20.97;18.87;;;3.30;40.80;;;;;;20664;6741;281690;-88
2022/03/03 04:36:32;;;;;;;21.13;19.00;;;3.50;40.70;;;;;;20712;6640;283243;-87
2022/03/03 04:39:07;;;;;;;21.40;19.10;;;3.50;40.20;;;;;;20737;6641;276828;-87
2022/03/03 04:41:43;;;;;;;21.93;16.87;;;3.60;40.00;;;;;;20894;6644;117862;-87
2022/03/03 04:44:19;;;;;;;21.33;19.23;;;3.10;40.70;;;;;;20719;6741;280978;-88
2022/03/03 04:46:55;;;;;;;20.73;18.80;;;3.10;40.70;;;;;;20594;6740;347076;-88
2022/03/03 04:49:30;;;;;;;16.13;14.63;;;3.20;40.80;;;;;;20883;6741;117301;-88
2022/03/03 04:52:07;;;;;;;20.73;18.62;;;3.00;40.90;;;;;;20639;6741;335749;-88
2022/03/03 04:54:42;;;;;;;17.13;15.40;;;2.90;40.80;;;;;;20850;6741;117408;-88
2022/03/03 04:57:18;;;;;;;20.33;18.23;;;2.80;40.80;;;;;;20583;6741;281469;-88
2022/03/03 04:59:53;;;;;;;20.83;18.83;;;2.70;40.80;;;;;;20665;6741;305713;-89
2022/03/03 05:02:29;;;;;;;22.43;20.07;;;2.90;40.50;;;;;;20623;6797;277284;-87
2022/03/03 05:05:16;;;;;;;;;;;;;;;;;;;;;
2022/03/03 05:07:41;;;;;;;19.43;16.10;;;2.80;40.40;;;;;;20236;6724;67153;-86
2022/03/03 05:10:18;;;;;;;17.60;15.63;;;2.10;41.30;;;;;;20807;6753;117046;-87
2022/03/03 05:12:53;;;;;;;22.37;20.03;;;2.00;41.30;;;;;;20576;6756;308387;-87
2022/03/03 05:15:30;;;;;;;20.20;17.43;;;2.10;42.40;;;;;;20877;6741;117541;-86
2022/03/03 05:18:06;;;;;;;24.20;17.17;;;1.90;42.20;;;;;;20769;6741;117604;-87
2022/03/03 05:20:43;;;;;;;22.95;20.65;;;1.90;42.20;;;;;;20534;6756;337291;-88
2022/03/03 05:23:20;;;;;;;21.10;18.43;;;2.00;43.00;;;;;;20902;6738;117779;-87
2022/03/03 05:25:55;;;;;;;22.53;20.30;;;2.00;42.70;;;;;;20659;6742;276434;-87
2022/03/03 05:28:31;;;;;;;23.80;21.23;;;2.10;43.10;;;;;;20403;6753;279934;-87
2022/03/03 05:31:06;;;;;;;22.62;20.27;;;2.50;42.60;;;;;;20573;6753;306286;-87
2022/03/03 05:33:52;;;;;;;19.93;17.07;;;2.80;42.20;;;;;;20705;6753;117353;-88
2022/03/03 05:36:18;;;;;;;20.33;16.23;;;2.60;41.90;;;;;;20844;6753;117743;-88
2022/03/03 05:38:55;;;;;;;19.23;15.70;;;2.30;42.20;;;;;;20843;6753;118803;-87
2022/03/03 05:41:34;;;;;;;21.47;15.97;;;2.00;42.50;;;;;;20810;6742;117123;-88
2022/03/03 05:44:12;;;;;;;17.33;15.30;;;1.80;42.70;;;;;;20765;6809;116822;-87
2022/03/03 05:46:51;;;;;;;19.20;15.00;;;1.70;42.90;;;;;;20774;6753;118042;-87
2022/03/03 05:49:51;;;;;;;;;;;;;;;;;;;;;
2022/03/03 05:52:13;;;;;;;;;;;;;;;;;;;;;
2022/03/03 05:54:39;;;;;;;23.07;16.10;;;1.70;42.90;;;;;;20768;6742;118137;-87
2022/03/03 05:57:18;;;;;;;19.00;14.93;;;1.50;43.00;;;;;;20760;6753;117660;-88
2022/03/03 05:59:53;;;;;;;19.23;15.17;;;1.40;43.20;;;;;;20764;6753;117772;-87
2022/03/03 06:02:29;;;;;;;19.17;14.30;;;1.20;43.20;;;;;;20703;6765;118333;-87
2022/03/03 06:05:05;;;;;;;17.27;14.47;;;1.00;43.30;;;;;;20822;6753;117355;-87
2022/03/03 06:07:40;;;;;;;21.80;19.50;;;0.90;43.50;;;;;;19875;6765;315390;-86
2022/03/03 06:10:17;;;;;;;21.63;19.30;;;1.50;44.60;;;;;;20466;6742;276916;-86
2022/03/03 06:13:10;;;;;;;21.67;19.50;;;1.50;43.90;;;;;;20565;6738;305985;-86
2022/03/03 06:15:46;;;;;;;18.40;16.27;;;1.70;43.00;;;;;;20755;6795;117683;-87
2022/03/03 06:18:33;;;;;;;22.52;20.33;;;1.70;42.90;;;;;;20465;6753;338705;-87
2022/03/03 06:21:09;;;;;;;19.77;16.97;;;1.80;43.20;;;;;;20898;6738;117773;-87
2022/03/03 06:23:45;;;;;;;22.15;19.87;;;1.70;42.90;;;;;;20634;6754;307313;-89
2022/03/03 06:26:20;;;;;;;22.45;20.20;;;1.80;43.30;;;;;;20651;6738;277574;-86
2022/03/03 06:28:58;;;;;;;24.33;19.95;;;2.10;42.80;;;;;;20666;6738;281329;-87
2022/03/03 06:31:34;;;;;;;22.40;20.12;;;2.40;42.50;;;;;;20676;6738;335107;-88
2022/03/03 06:34:20;;;;;;;;;;;;;;;;;;;;;
2022/03/03 06:36:47;;;;;;;22.23;19.93;;;2.50;42.10;;;;;;20321;6810;336948;-87
2022/03/03 06:39:24;;;;;;;21.90;18.33;;;2.60;42.30;;;;;;20762;6753;117740;-89
2022/03/03 06:42:00;;;;;;;19.00;17.10;;;2.60;42.20;;;;;;20812;6765;117949;-87
2022/03/03 06:44:35;;;;;;;18.67;15.87;;;2.50;42.40;;;;;;20850;6741;117554;-88
2022/03/03 06:47:11;;;;;;;20.00;16.00;;;2.30;42.60;;;;;;20765;6756;117845;-87
2022/03/03 06:49:47;;;;;;;20.00;15.53;;;2.30;42.80;;;;;;20701;6813;118099;-85
2022/03/03 06:52:22;;;;;;;22.53;20.30;;;2.20;42.90;;;;;;20542;6764;311307;-88
2022/03/03 06:55:01;;;;;;;18.60;16.60;;;2.50;42.60;;;;;;20887;6735;118090;-86
2022/03/03 06:57:34;;;;;;;17.43;15.63;;;2.70;42.40;;;;;;20743;6750;118672;-86
2022/03/03 07:00:39;;;;;;;;;;;;;;;;;;;;;
2022/03/03 07:02:59;;;;;;;22.27;19.90;;;2.60;42.60;;;;;;20500;6810;305922;-84
2022/03/03 07:05:27;;;;;;;19.57;17.47;;;3.00;42.60;;;;;;20901;6738;121053;-89
2022/03/03 07:08:02;;;;;;;18.57;16.57;;;3.00;42.00;;;;;;20709;6753;117721;-88
2022/03/03 07:10:37;;;;;;;22.20;19.90;;;2.90;42.00;;;;;;20654;6742;306138;-87
2022/03/03 07:13:14;;;;;;;18.67;16.67;;;3.20;41.90;;;;;;20919;6753;117053;-88
2022/03/03 07:19:28;;;;;;;18.30;16.30;;;3.60;41.70;;;;;;18898;7306;78507;-94
2022/03/03 07:50:13;;;;;;;19.23;16.70;;;6.40;37.40;;;;;;21124;6586;67472;-85
2022/03/03 07:52:39;;;;;;;21.13;19.03;;;6.40;37.60;;;;;;20607;6792;277293;-89
2022/03/03 07:55:06;;;;;;;19.87;17.87;;;6.40;37.60;;;;;;20854;6794;117750;-88
2022/03/03 07:57:35;;;;;;;21.83;19.73;;;6.50;37.80;;;;;;20538;6794;309772;-87
2022/03/03 08:00:08;;;;;;;21.30;19.30;;;6.70;37.40;;;;;;20431;6861;308878;-88
2022/03/03 08:02:35;;;;;;;19.43;17.57;;;7.00;36.50;;;;;;20585;6874;117854;-93
2022/03/03 08:05:01;;;;;;;18.30;16.43;;;7.10;36.60;;;;;;20667;6855;117970;-92
2022/03/03 08:07:26;;;;;;;21.73;18.48;;;7.00;37.10;;;;;;20609;6882;117772;-89
2022/03/03 08:09:56;;;;;;;19.45;17.27;;;6.80;37.50;;;;;;20653;6866;118052;-93
2022/03/03 08:12:22;;;;;;;19.03;17.03;;;6.70;37.90;;;;;;20666;6866;118380;-92
2022/03/03 08:14:47;;;;;;;20.47;17.37;;;6.70;38.30;;;;;;20595;6867;117608;-91
2022/03/03 08:17:15;;;;;;;22.00;19.67;;;7.10;38.00;;;;;;20426;6870;309015;-91
2022/03/03 08:19:40;;;;;;;21.60;17.83;;;7.00;37.90;;;;;;20637;6870;117553;-92
2022/03/03 08:22:06;;;;;;;18.47;16.57;;;7.40;38.20;;;;;;20633;6866;118196;-91
2022/03/03 08:24:32;;;;;;;20.30;18.40;;;7.30;38.00;;;;;;20413;6859;308369;-91
2022/03/03 08:26:58;;;;;;;21.52;19.60;;;7.70;37.10;;;;;;20472;6859;308758;-91
2022/03/03 08:29:24;;;;;;;22.47;20.47;;;8.20;36.30;;;;;;20506;6859;308755;-92
2022/03/03 08:31:50;;;;;;;22.73;20.43;;;8.70;35.60;;;;;;20455;6867;294170;-87
2022/03/03 08:34:42;;;;;;;22.45;20.35;;;9.00;34.60;;;;;;20417;6870;279755;-93
2022/03/03 08:37:07;;;;;;;21.55;19.55;;;9.20;34.60;;;;;;19894;6867;339403;-85
2022/03/03 08:39:34;;;;;;;22.37;20.07;;;9.40;34.80;;;;;;20423;6875;309353;-89
2022/03/03 08:42:06;;;;;;;21.23;18.37;;;9.50;34.00;;;;;;20667;6862;116668;-89
2022/03/03 08:44:33;;;;;;;20.43;18.43;;;9.40;34.20;;;;;;20645;6862;117609;-85
2022/03/03 08:46:58;;;;;;;19.10;16.93;;;9.10;34.60;;;;;;20528;6844;117718;-90
2022/03/03 08:49:24;;;;;;;21.80;19.77;;;8.80;34.90;;;;;;20448;6867;307919;-90
2022/03/03 08:51:50;;;;;;;21.12;19.02;;;8.90;34.90;;;;;;20674;6852;117543;-91
2022/03/03 08:54:15;;;;;;;23.23;21.03;;;8.90;34.70;;;;;;20450;6867;337056;-89
2022/03/03 08:56:41;;;;;;;23.27;18.70;;;9.00;34.30;;;;;;20631;6868;117672;-87
2022/03/03 08:59:07;;;;;;;22.60;20.40;;;9.00;34.50;;;;;;20442;6867;339362;-87
2022/03/03 09:01:32;;;;;;;22.70;20.37;;;9.10;34.80;;;;;;20440;6867;309407;-87
2022/03/03 09:04:01;;;;;;;21.30;18.33;;;9.40;33.90;;;;;;20655;6868;117869;-86
2022/03/03 09:06:27;;;;;;;19.50;17.40;;;9.40;33.90;;;;;;20646;6868;117809;-87
2022/03/03 09:08:55;;;;;;;23.00;20.60;;;9.30;34.30;;;;;;20400;6868;310271;-90
2022/03/03 09:11:21;;;;;;;22.37;20.27;;;9.40;34.20;;;;;;20443;6868;281870;-89
2022/03/03 09:13:46;;;;;;;21.37;19.30;;;9.70;34.00;;;;;;20439;6868;313081;-86
2022/03/03 09:16:13;;;;;;;21.13;19.23;;;10.40;31.70;;;;;;20439;6868;280949;-86
2022/03/03 09:18:38;;;;;;;20.77;18.77;;;10.40;31.70;;;;;;20410;6868;309789;-88
2022/03/03 09:21:04;;;;;;;21.37;19.47;;;10.60;31.80;;;;;;20443;6868;279651;-89
2022/03/03 09:23:30;;;;;;;22.08;19.77;;;10.90;31.50;;;;;;20451;6868;310816;-87
2022/03/03 09:25:57;;;;;;;21.52;19.50;;;10.90;31.50;;;;;;20455;6868;309677;-87
2022/03/03 09:28:22;;;;;;;23.30;21.10;;;11.10;31.40;;;;;;20437;6868;338592;-88
2022/03/03 09:30:51;;;;;;;22.87;20.77;;;11.30;30.80;;;;;;20402;6868;291034;-90
2022/03/03 09:33:17;;;;;;;21.50;19.50;;;11.40;30.40;;;;;;20448;6868;338985;-91
2022/03/03 09:35:44;;;;;;;20.10;18.17;;;11.40;30.20;;;;;;20660;6868;118243;-89
2022/03/03 09:38:10;;;;;;;20.00;18.00;;;11.00;30.40;;;;;;20662;6868;118237;-88
2022/03/03 09:40:36;;;;;;;20.95;18.95;;;11.00;30.90;;;;;;20432;6868;280672;-88
2022/03/03 09:43:01;;;;;;;22.30;20.10;;;11.10;30.70;;;;;;20444;6868;338722;-89
2022/03/03 09:45:27;;;;;;;20.95;18.60;;;11.30;30.50;;;;;;20606;6868;118447;-88
2022/03/03 09:47:55;;;;;;;19.63;17.73;;;11.20;31.10;;;;;;20649;6868;117883;-90
2022/03/03 09:50:24;;;;;;;21.40;19.20;;;11.10;31.00;;;;;;20646;6868;117714;-89
2022/03/03 09:52:50;;;;;;;21.40;19.43;;;11.00;31.30;;;;;;20417;6868;310316;-87
2022/03/03 09:55:16;;;;;;;19.10;17.23;;;11.10;31.30;;;;;;20648;6868;118566;-89
2022/03/03 09:57:41;;;;;;;22.43;20.23;;;11.20;31.50;;;;;;20428;6866;280102;-89
2022/03/03 10:00:12;;;;;;;21.85;19.77;;;11.50;31.10;;;;;;20474;6852;278671;-88
2022/03/03 10:02:37;;;;;;;19.87;17.87;;;11.90;30.60;;;;;;20645;6864;121715;-86
2022/03/03 10:05:02;;;;;;;21.40;19.50;;;11.90;30.60;;;;;;20358;6860;311629;-85
2022/03/03 10:07:29;;;;;;;20.60;18.53;;;12.10;29.90;;;;;;20676;6860;118277;-91
2022/03/03 10:10:02;;;;;;;19.00;16.93;;;12.10;30.00;;;;;;20734;6845;121414;-88
2022/03/03 10:12:27;;;;;;;22.33;20.23;;;11.90;29.90;;;;;;20490;6845;339108;-85
2022/03/03 10:14:52;;;;;;;18.70;17.00;;;12.00;29.40;;;;;;20690;6854;117680;-88
2022/03/03 10:17:18;;;;;;;20.42;18.35;;;12.00;29.80;;;;;;20653;6653;308929;-85
2022/03/03 10:20:02;;;;;;;21.27;19.27;;;12.10;29.00;;;;;;20609;6765;305215;-90
2022/03/03 10:22:58;;;;;;;;;;;;;;;;;;;;;
2022/03/03 10:25:30;;;;;;;19.93;18.20;;;12.70;28.30;;;;;;20629;6751;278610;-90
2022/03/03 10:28:09;;;;;;;20.03;18.33;;;12.90;28.10;;;;;;20497;6751;279798;-90
2022/03/03 10:30:51;;;;;;;20.23;18.33;;;13.20;27.30;;;;;;20633;6751;336581;-85
2022/03/03 10:33:29;;;;;;;19.03;17.00;;;13.20;27.30;;;;;;20856;6746;118572;-87
2022/03/03 10:36:08;;;;;;;20.13;18.33;;;13.00;27.60;;;;;;20646;6746;283818;-86
2022/03/03 10:38:49;;;;;;;20.08;18.42;;;12.90;27.10;;;;;;20630;6748;280336;-88
2022/03/03 10:41:31;;;;;;;19.07;17.07;;;13.10;27.30;;;;;;20828;6752;115373;-92
2022/03/03 10:44:10;;;;;;;17.63;15.93;;;13.00;27.60;;;;;;20598;6752;117625;-87
2022/03/03 10:46:59;;;;;;;18.53;16.57;;;12.60;28.10;;;;;;20693;6826;128032;-87
2022/03/03 10:49:34;;;;;;;18.50;16.70;;;12.40;28.60;;;;;;20918;6752;116741;-86
2022/03/03 10:52:10;;;;;;;20.70;18.75;;;12.30;28.90;;;;;;20698;6736;277657;-89
2022/03/03 10:54:59;;;;;;;19.60;16.10;;;12.50;28.10;;;;;;20878;6736;117909;-88
2022/03/03 10:57:38;;;;;;;20.20;18.40;;;12.40;28.10;;;;;;20600;6736;312111;-90
2022/03/03 11:00:25;;;;;;;19.67;16.40;;;12.60;27.90;;;;;;20905;6736;118269;-92
2022/03/03 11:03:06;;;;;;;21.00;19.15;;;12.60;27.90;;;;;;20676;6736;280468;-89
2022/03/03 11:05:41;;;;;;;20.90;19.10;;;12.70;27.60;;;;;;20703;6736;281173;-88
2022/03/03 11:08:17;;;;;;;19.90;18.07;;;13.10;27.10;;;;;;20546;6736;301659;-88
2022/03/03 11:10:53;;;;;;;18.40;16.63;;;13.10;27.10;;;;;;20880;6792;117885;-87
2022/03/03 11:13:28;;;;;;;20.13;18.20;;;13.00;27.20;;;;;;20448;6784;309012;-89
2022/03/03 11:16:04;;;;;;;17.80;16.00;;;13.10;27.40;;;;;;20455;6755;67256;-88
2022/03/03 11:18:40;;;;;;;17.47;15.70;;;13.00;27.60;;;;;;20844;6734;148164;-87
2022/03/03 11:21:15;;;;;;;19.02;17.25;;;12.80;27.60;;;;;;20601;6749;336722;-86
2022/03/03 11:23:54;;;;;;;17.70;15.90;;;12.90;27.40;;;;;;20769;6765;120797;-91
2022/03/03 11:26:40;;;;;;;19.37;15.83;;;12.90;27.40;;;;;;20668;6784;118053;-85
2022/03/03 11:29:17;;;;;;;18.50;16.50;;;12.80;27.40;;;;;;20870;6769;116602;-90
2022/03/03 11:32:09;;;;;;;16.70;15.00;;;12.60;27.40;;;;;;20867;6754;67721;-93
2022/03/03 11:34:43;;;;;;;17.90;15.97;;;12.60;27.50;;;;;;20916;6754;117475;-88
2022/03/03 11:37:20;;;;;;;19.02;17.23;;;12.50;27.60;;;;;;19572;7040;355633;31
2022/03/03 11:40:01;;;;;;;18.00;16.20;;;12.70;26.60;;;;;;20517;6770;116633;-90
2022/03/03 11:42:40;;;;;;;19.33;17.52;;;12.80;26.70;;;;;;20562;6763;307440;-85
2022/03/03 11:45:15;;;;;;;19.33;17.62;;;12.90;26.30;;;;;;20550;6778;308001;-90
2022/03/03 11:47:51;;;;;;;19.37;17.50;;;13.20;26.10;;;;;;20497;6757;279524;-86
2022/03/03 11:50:27;;;;;;;19.33;17.53;;;13.60;26.20;;;;;;20634;6800;306686;-91
2022/03/03 11:53:03;;;;;;;17.33;15.63;;;13.70;25.80;;;;;;20883;6744;118016;-90
2022/03/03 11:55:38;;;;;;;20.12;18.17;;;13.70;25.80;;;;;;20601;6744;309723;-88
2022/03/03 11:58:17;;;;;;;19.53;17.63;;;13.70;25.40;;;;;;20442;6818;309602;-89
2022/03/03 12:01:08;;;;;;;19.27;17.57;;;13.90;24.90;;;;;;20637;6747;308831;-86
2022/03/03 12:03:58;;;;;;;17.60;15.70;;;14.00;25.20;;;;;;20819;6761;117508;-87
2022/03/03 12:06:45;;;;;;;18.50;15.77;;;13.80;25.80;;;;;;20754;6756;120347;-88
2022/03/03 12:09:19;;;;;;;20.23;18.17;;;13.60;25.90;;;;;;20637;6749;277753;-87
2022/03/03 12:12:08;;;;;;;18.50;16.60;;;13.60;25.30;;;;;;20861;6758;120319;-92
2022/03/03 12:15:01;;;;;;;17.40;15.57;;;13.50;25.80;;;;;;20768;6762;117609;-88
2022/03/03 12:17:56;;;;;;;17.27;15.50;;;13.30;26.20;;;;;;20742;6762;118237;-88
2022/03/03 12:20:33;;;;;;;18.53;16.63;;;13.20;26.50;;;;;;20753;6764;117789;-88
2022/03/03 12:23:13;;;;;;;18.07;16.20;;;13.00;26.60;;;;;;20788;6820;117930;-88
2022/03/03 12:25:51;;;;;;;19.87;18.07;;;13.00;26.70;;;;;;20496;6805;277374;-87
2022/03/03 12:28:34;;;;;;;18.00;15.67;;;13.10;26.50;;;;;;20672;6749;117883;-87
2022/03/03 12:31:26;;;;;;;18.15;16.45;;;13.30;26.80;;;;;;20625;6749;306824;-87
2022/03/03 12:34:08;;;;;;;17.80;16.17;;;13.50;26.30;;;;;;20646;6736;308168;-91
2022/03/03 12:36:44;;;;;;;16.87;15.07;;;13.80;25.50;;;;;;20825;6735;118234;-88
2022/03/03 12:39:19;;;;;;;19.50;17.40;;;13.80;25.80;;;;;;20636;6759;307251;-90
2022/03/03 12:41:57;;;;;;;17.07;13.80;;;13.90;25.90;;;;;;20837;6764;117679;-89
2022/03/03 12:44:31;;;;;;;18.93;17.10;;;13.90;26.10;;;;;;20825;6764;117539;-91
2022/03/03 12:47:07;;;;;;;19.17;17.17;;;13.70;26.20;;;;;;20787;6749;118338;-88
2022/03/03 12:49:46;;;;;;;20.50;18.62;;;13.60;26.30;;;;;;20704;6729;278057;-88
2022/03/03 12:52:22;;;;;;;19.27;17.17;;;13.60;26.30;;;;;;20844;6744;117492;-88
2022/03/03 12:54:57;;;;;;;19.62;17.70;;;13.60;26.30;;;;;;20599;6759;306761;-90
2022/03/03 12:57:32;;;;;;;19.00;15.03;;;13.70;27.50;;;;;;20766;6759;117576;-91
2022/03/03 13:00:12;;;;;;;20.57;17.30;;;13.80;27.20;;;;;;20815;6762;117641;-88
2022/03/03 13:02:58;;;;;;;19.97;18.10;;;13.70;27.00;;;;;;20587;6762;307397;-92
2022/03/03 13:05:31;;;;;;;19.63;16.97;;;13.80;26.70;;;;;;20836;6759;117428;-87
2022/03/03 13:08:06;;;;;;;18.27;16.47;;;13.80;26.80;;;;;;20394;6761;280728;-88
2022/03/03 13:10:51;;;;;;;16.50;14.73;;;13.90;26.00;;;;;;20756;6758;117911;-90
2022/03/03 13:13:19;;;;;;;18.90;17.00;;;13.80;25.60;;;;;;20582;6768;337586;-88
2022/03/03 13:15:54;;;;;;;16.97;15.30;;;13.90;25.00;;;;;;20807;6768;117563;-89
2022/03/03 13:18:30;;;;;;;16.80;15.00;;;13.90;25.20;;;;;;20602;6771;124583;-90
2022/03/03 13:21:06;;;;;;;15.27;13.73;;;13.70;25.30;;;;;;20817;6756;118064;-88
2022/03/03 13:23:41;;;;;;;17.40;15.27;;;13.50;25.20;;;;;;20836;6753;120438;-91
2022/03/03 13:26:17;;;;;;;19.87;17.77;;;13.40;25.20;;;;;;20687;6741;310526;-88
2022/03/03 13:28:53;;;;;;;18.87;16.80;;;13.50;23.80;;;;;;20868;6741;117434;-87
2022/03/03 13:31:28;;;;;;;17.97;15.50;;;13.50;24.20;;;;;;20913;6733;117398;-90
2022/03/03 13:34:09;;;;;;;17.90;15.20;;;13.40;24.60;;;;;;20885;6733;116528;-88
2022/03/03 13:36:42;;;;;;;17.63;15.97;;;13.40;23.80;;;;;;20615;6733;308302;-90
2022/03/03 13:39:21;;;;;;;17.93;16.33;;;13.40;23.80;;;;;;20663;6741;279096;-92
2022/03/03 13:42:03;;;;;;;17.20;15.50;;;13.70;22.80;;;;;;20810;6797;118033;-90
2022/03/03 13:44:40;;;;;;;17.03;14.53;;;13.70;23.20;;;;;;20880;6741;117896;-91
2022/03/03 13:47:25;;;;;;;;;;;;;;;;;;;;;
2022/03/03 13:49:51;;;;;;;13.73;12.33;;;13.50;22.20;;;;;;20863;6739;117757;-88
2022/03/03 13:52:37;;;;;;;15.50;13.90;;;13.50;22.40;;;;;;20663;6740;335870;-88